createdAt,value
2018-10-19T00:04:00.316Z,50
2018-10-19T00:09:02.745Z,49
2018-10-19T00:14:05.282Z,48
2018-10-19T00:19:07.615Z,46
2018-10-19T00:24:10.048Z,44
2018-10-19T00:29:12.663Z,44
2018-10-19T00:34:14.938Z,44
2018-10-19T00:39:17.474Z,39
2018-10-19T00:44:19.835Z,40
2018-10-19T00:49:22.244Z,40
2018-10-19T00:54:24.696Z,30
2018-10-19T00:59:27.188Z,29
2018-10-19T01:04:29.576Z,29
2018-10-19T01:09:32.035Z,29
2018-10-19T01:14:34.473Z,28
2018-10-19T01:19:36.890Z,30
2018-10-19T01:24:39.341Z,28
2018-10-19T01:29:41.791Z,24
2018-10-19T01:34:44.217Z,23
2018-10-19T01:39:46.646Z,26
2018-10-19T01:44:49.099Z,25
2018-10-19T01:49:51.540Z,24
2018-10-19T01:54:53.980Z,24
2018-10-19T01:59:56.422Z,24
2018-10-19T02:04:58.865Z,31
2018-10-19T02:10:06.585Z,28
2018-10-19T02:15:03.840Z,26
2018-10-19T02:20:06.199Z,25
2018-10-19T02:25:08.629Z,23
2018-10-19T02:30:11.108Z,18
2018-10-19T02:35:13.585Z,20
2018-10-19T02:40:15.949Z,20
2018-10-19T02:45:18.489Z,24
2018-10-19T02:50:20.825Z,18
2018-10-19T02:55:23.275Z,17
2018-10-19T03:00:25.723Z,16
2018-10-19T03:05:28.145Z,12
2018-10-19T03:10:30.601Z,9
2018-10-19T03:15:33.037Z,16
2018-10-19T03:20:35.463Z,12
2018-10-19T03:25:37.910Z,13
2018-10-19T03:30:40.523Z,13
2018-10-19T03:35:42.778Z,15
2018-10-19T03:40:45.219Z,12
2018-10-19T03:45:47.669Z,13
2018-10-19T03:50:50.097Z,12
2018-10-19T03:55:52.575Z,14
2018-10-19T04:00:55.019Z,17
2018-10-19T04:05:57.460Z,17
2018-10-19T04:10:59.953Z,21
2018-10-19T04:16:02.385Z,22
2018-10-19T04:21:04.862Z,28
2018-10-19T04:26:07.257Z,139
2018-10-19T04:31:09.712Z,352
2018-10-19T04:36:17.071Z,315
2018-10-19T04:41:14.755Z,213
2018-10-19T04:46:17.051Z,193
2018-10-19T04:51:19.389Z,204
2018-10-19T04:56:21.835Z,232
2018-10-19T05:01:24.289Z,95
2018-10-19T05:06:26.791Z,44
2018-10-19T05:11:29.150Z,135
2018-10-19T05:16:31.600Z,60
2018-10-19T05:21:34.044Z,59
2018-10-19T05:26:36.463Z,39
2018-10-19T05:31:38.943Z,34
2018-10-19T05:36:41.354Z,21
2018-10-19T05:41:43.801Z,28
2018-10-19T05:46:46.236Z,27
2018-10-19T05:51:48.674Z,28
2018-10-19T05:56:51.115Z,22
2018-10-19T06:01:53.583Z,15
2018-10-19T06:06:55.997Z,28
2018-10-19T06:11:58.431Z,36
2018-10-19T06:17:00.947Z,58
2018-10-19T06:22:03.352Z,51
2018-10-19T06:27:05.752Z,38
2018-10-19T06:32:08.265Z,35
2018-10-19T06:37:10.642Z,46
2018-10-19T06:42:13.092Z,31
2018-10-19T06:47:15.632Z,31
2018-10-19T06:52:17.987Z,16
2018-10-19T06:57:20.400Z,18
2018-10-19T07:02:22.839Z,36
2018-10-19T07:07:25.277Z,29
2018-10-19T07:12:27.715Z,15
2018-10-19T07:17:30.181Z,17
2018-10-19T07:22:32.604Z,20
2018-10-19T07:27:35.041Z,18
2018-10-19T07:32:37.510Z,21
2018-10-19T07:37:39.932Z,23
2018-10-19T07:42:42.364Z,21
2018-10-19T07:47:44.922Z,15
2018-10-19T07:52:47.278Z,14
2018-10-19T07:57:49.684Z,16
2018-10-19T08:02:52.130Z,14
2018-10-19T08:07:54.565Z,15
2018-10-19T08:12:57.013Z,12
2018-10-19T08:17:59.438Z,8
2018-10-19T08:23:02.134Z,7
2018-10-19T08:28:04.359Z,8
2018-10-19T08:33:06.786Z,10
2018-10-19T08:38:09.212Z,13
2018-10-19T08:43:11.751Z,10
2018-10-19T08:48:14.127Z,10
2018-10-19T08:53:16.639Z,11
2018-10-19T08:58:19.099Z,10
2018-10-19T09:03:21.488Z,10
2018-10-19T09:08:23.922Z,10
2018-10-19T09:13:26.295Z,9
2018-10-19T09:18:28.811Z,11
2018-10-19T09:23:31.203Z,6
2018-10-19T09:28:33.607Z,7
2018-10-19T09:33:36.059Z,6
2018-10-19T09:38:38.505Z,6
2018-10-19T09:43:40.932Z,7
2018-10-19T09:53:45.814Z,8
2018-10-19T09:58:48.251Z,6
2018-10-19T10:03:50.700Z,5
2018-10-19T10:08:53.166Z,6
2018-10-19T10:13:55.569Z,5
2018-10-19T10:18:58.119Z,5
2018-10-19T10:24:00.462Z,6
2018-10-19T10:29:02.895Z,5
2018-10-19T10:34:05.365Z,7
2018-10-19T10:39:07.892Z,6
2018-10-19T10:44:10.220Z,6
2018-10-19T10:49:12.759Z,9
2018-10-19T10:54:15.105Z,9
2018-10-19T10:59:17.546Z,17
2018-10-19T11:04:19.989Z,17
2018-10-19T11:09:22.466Z,16
2018-10-19T11:14:24.857Z,22
2018-10-19T11:19:27.311Z,22
2018-10-19T11:24:29.775Z,20
2018-10-19T11:29:32.195Z,23
2018-10-19T11:34:34.650Z,33
2018-10-19T11:39:37.095Z,29
2018-10-19T11:44:39.494Z,23
2018-10-19T11:49:41.936Z,24
2018-10-19T11:54:44.394Z,30
2018-10-19T11:59:46.853Z,34
2018-10-19T12:04:49.283Z,31
2018-10-19T12:09:51.693Z,30
2018-10-19T12:14:54.151Z,23
2018-10-19T12:19:56.614Z,20
2018-10-19T12:24:59.048Z,20
2018-10-19T12:30:06.488Z,26
2018-10-19T12:35:03.902Z,29
2018-10-19T12:40:06.352Z,21
2018-10-19T12:45:08.848Z,22
2018-10-19T12:50:11.247Z,24
2018-10-19T12:55:13.831Z,20
2018-10-19T13:00:16.117Z,19
2018-10-19T13:05:18.553Z,31
2018-10-19T13:10:20.990Z,25
2018-10-19T13:15:23.433Z,23
2018-10-19T13:20:25.866Z,21
2018-10-19T13:25:28.316Z,21
2018-10-19T13:30:30.841Z,28
2018-10-19T13:35:33.184Z,25
2018-10-19T13:40:35.663Z,28
2018-10-19T13:45:38.074Z,29
2018-10-19T13:50:40.507Z,24
2018-10-19T13:55:42.960Z,28
2018-10-19T14:00:45.404Z,27
2018-10-19T14:05:47.878Z,30
2018-10-19T14:10:50.282Z,36
2018-10-19T14:15:52.710Z,40
2018-10-19T14:20:55.264Z,49
2018-10-19T14:25:57.671Z,49
2018-10-19T14:31:00.124Z,43
2018-10-19T14:36:02.479Z,35
2018-10-19T14:41:05.068Z,45
2018-10-19T14:46:07.367Z,57
2018-10-19T14:51:09.841Z,65
2018-10-19T14:56:12.238Z,64
2018-10-19T15:01:14.766Z,60
2018-10-19T15:06:17.126Z,56
2018-10-19T15:11:19.793Z,62
2018-10-19T15:16:22.010Z,71
2018-10-19T15:21:24.440Z,92
2018-10-19T15:26:26.927Z,72
2018-10-19T15:31:29.327Z,82
2018-10-19T15:36:31.801Z,83
2018-10-19T15:41:34.201Z,80
2018-10-19T15:46:36.748Z,69
2018-10-19T15:51:39.097Z,72
2018-10-19T15:56:41.570Z,83
2018-10-19T16:01:43.972Z,77
2018-10-19T16:06:46.400Z,90
2018-10-19T16:11:48.849Z,82
2018-10-19T16:16:51.278Z,83
2018-10-19T16:21:53.722Z,79
2018-10-19T16:26:56.179Z,76
2018-10-19T16:31:58.598Z,66
2018-10-19T16:37:01.033Z,66
2018-10-19T16:42:03.675Z,74
2018-10-19T16:47:05.919Z,72
2018-10-19T16:52:08.400Z,78
2018-10-19T16:57:10.861Z,64
2018-10-19T17:02:13.245Z,69
2018-10-19T17:07:15.729Z,72
2018-10-19T17:12:18.126Z,62
2018-10-19T17:17:20.553Z,66
2018-10-19T17:22:22.995Z,62
2018-10-19T17:27:25.453Z,60
2018-10-19T17:32:27.891Z,55
2018-10-19T17:37:30.427Z,55
2018-10-19T17:42:32.768Z,61
2018-10-19T17:47:35.221Z,61
2018-10-19T17:52:37.649Z,53
2018-10-19T17:57:40.128Z,51
2018-10-19T18:02:42.535Z,44
2018-10-19T18:07:44.980Z,53
2018-10-19T18:12:47.503Z,61
2018-10-19T18:17:49.884Z,56
2018-10-19T18:22:52.392Z,52
2018-10-19T18:27:54.728Z,67
2018-10-19T18:32:57.157Z,61
2018-10-19T18:37:59.660Z,67
2018-10-19T18:43:02.117Z,64
2018-10-19T18:48:04.515Z,67
2018-10-19T18:53:07.050Z,65
2018-10-19T18:58:09.386Z,63
2018-10-19T19:03:11.812Z,65
2018-10-19T19:08:14.364Z,69
2018-10-19T19:13:16.692Z,64
2018-10-19T19:18:19.135Z,68
2018-10-19T19:23:21.578Z,73
2018-10-19T19:28:24.116Z,69
2018-10-19T19:33:26.450Z,67
2018-10-19T19:38:28.890Z,73
2018-10-19T19:43:31.346Z,73
2018-10-19T19:48:33.795Z,78
2018-10-19T19:53:36.207Z,82
2018-10-19T19:58:38.660Z,81
2018-10-19T20:03:41.104Z,72
2018-10-19T20:08:43.565Z,77
2018-10-19T20:13:45.973Z,76
2018-10-19T20:18:48.425Z,70
2018-10-19T20:23:50.860Z,73
2018-10-19T20:28:53.313Z,71
2018-10-19T20:33:55.736Z,73
2018-10-19T20:38:58.176Z,72
2018-10-19T20:44:00.714Z,67
2018-10-19T20:49:03.055Z,63
2018-10-19T20:54:05.586Z,69
2018-10-19T20:59:08.021Z,68
2018-10-19T21:04:10.390Z,67
2018-10-19T21:09:12.814Z,68
2018-10-19T21:14:15.347Z,69
2018-10-19T21:19:17.730Z,72
2018-10-19T21:24:20.134Z,71
2018-10-19T21:29:22.836Z,78
2018-10-19T21:34:25.008Z,74
2018-10-19T21:39:27.560Z,71
2018-10-19T21:44:29.905Z,73
2018-10-19T21:49:32.339Z,78
2018-10-19T21:54:34.777Z,81
2018-10-19T21:59:37.213Z,81
2018-10-19T22:04:39.697Z,87
2018-10-19T22:09:42.097Z,89
2018-10-19T22:14:44.600Z,106
2018-10-19T22:19:47.027Z,105
2018-10-19T22:24:49.426Z,97
2018-10-19T22:29:51.867Z,97
2018-10-19T22:34:54.332Z,94
2018-10-19T22:39:56.733Z,102
2018-10-19T22:44:59.187Z,98
2018-10-19T22:50:01.628Z,76
2018-10-19T22:55:04.092Z,98
2018-10-19T23:00:06.539Z,120
2018-10-19T23:05:09.000Z,119
2018-10-19T23:10:11.378Z,105
2018-10-19T23:15:13.833Z,106
2018-10-19T23:20:16.264Z,103
2018-10-19T23:25:18.702Z,92
2018-10-19T23:30:21.222Z,91
2018-10-19T23:35:23.591Z,88
2018-10-19T23:40:26.029Z,86
2018-10-19T23:45:28.471Z,82
2018-10-19T23:50:30.940Z,71
2018-10-19T23:55:33.346Z,72
